METAR Data
IDs: Format: Raw Decoded Include TAF

Data at: 1229 UTC 26 Feb 2021

EKYT 261220Z AUTO 29022G34KT 9999 BKN011/// 08/06 Q1024